sensor_id;sensor_type;location;lat;lon;timestamp;noise_LAeq;noise_LA_min;noise_LA_max;noise_LA01;noise_LA95
38366;Laerm;943;51.568;6.998;2022-11-06T00:00:34;43.43;36.15;57.89;;
38366;Laerm;943;51.568;6.998;2022-11-06T00:03:03;45.50;37.54;63.97;;
38366;Laerm;943;51.568;6.998;2022-11-06T00:05:32;47.15;35.94;77.82;;
38366;Laerm;943;51.568;6.998;2022-11-06T00:08:39;40.26;36.53;53.31;;
38366;Laerm;943;51.568;6.998;2022-11-06T00:11:15;39.80;36.08;48.24;;
38366;Laerm;943;51.568;6.998;2022-11-06T00:13:45;40.23;36.48;48.40;;
38366;Laerm;943;51.568;6.998;2022-11-06T00:16:14;40.67;36.67;48.13;;
38366;Laerm;943;51.568;6.998;2022-11-06T00:18:42;41.63;37.37;60.29;;
38366;Laerm;943;51.568;6.998;2022-11-06T00:21:23;39.44;36.50;48.18;;
38366;Laerm;943;51.568;6.998;2022-11-06T00:23:55;40.17;36.31;45.37;;
38366;Laerm;943;51.568;6.998;2022-11-06T00:26:27;41.48;37.45;55.41;;
38366;Laerm;943;51.568;6.998;2022-11-06T00:28:57;40.31;37.05;45.75;;
38366;Laerm;943;51.568;6.998;2022-11-06T00:31:32;39.42;35.96;44.46;;
38366;Laerm;943;51.568;6.998;2022-11-06T00:34:04;40.23;36.51;47.83;;
38366;Laerm;943;51.568;6.998;2022-11-06T00:36:35;41.44;36.14;56.14;;
38366;Laerm;943;51.568;6.998;2022-11-06T00:39:03;41.43;36.92;53.68;;
38366;Laerm;943;51.568;6.998;2022-11-06T00:41:31;40.02;35.35;47.25;;
38366;Laerm;943;51.568;6.998;2022-11-06T00:44:02;39.04;35.70;48.51;;
38366;Laerm;943;51.568;6.998;2022-11-06T00:46:31;41.42;35.83;54.51;;
38366;Laerm;943;51.568;6.998;2022-11-06T00:48:58;39.35;35.93;57.78;;
38366;Laerm;943;51.568;6.998;2022-11-06T00:51:35;37.98;34.48;44.98;;
38366;Laerm;943;51.568;6.998;2022-11-06T00:54:10;38.59;35.52;45.66;;
38366;Laerm;943;51.568;6.998;2022-11-06T00:56:39;39.08;35.57;46.17;;
38366;Laerm;943;51.568;6.998;2022-11-06T00:59:12;41.21;37.20;48.12;;
38366;Laerm;943;51.568;6.998;2022-11-06T01:01:43;40.91;36.95;50.08;;
38366;Laerm;943;51.568;6.998;2022-11-06T01:04:19;39.87;36.53;47.92;;
38366;Laerm;943;51.568;6.998;2022-11-06T01:06:53;40.78;36.41;53.59;;
38366;Laerm;943;51.568;6.998;2022-11-06T01:09:26;40.23;35.93;45.89;;
38366;Laerm;943;51.568;6.998;2022-11-06T01:11:58;43.42;35.66;59.76;;
38366;Laerm;943;51.568;6.998;2022-11-06T01:14:42;45.83;37.08;71.61;;
38366;Laerm;943;51.568;6.998;2022-11-06T01:17:11;40.24;36.45;46.29;;
38366;Laerm;943;51.568;6.998;2022-11-06T01:19:39;39.20;36.26;45.59;;
38366;Laerm;943;51.568;6.998;2022-11-06T01:22:07;38.14;34.66;41.59;;
38366;Laerm;943;51.568;6.998;2022-11-06T01:24:35;39.87;36.19;45.01;;
38366;Laerm;943;51.568;6.998;2022-11-06T01:27:03;40.41;36.60;56.91;;
38366;Laerm;943;51.568;6.998;2022-11-06T01:29:51;39.73;35.65;50.41;;
38366;Laerm;943;51.568;6.998;2022-11-06T01:32:19;41.39;35.53;52.50;;
38366;Laerm;943;51.568;6.998;2022-11-06T01:34:50;40.51;35.43;50.57;;
38366;Laerm;943;51.568;6.998;2022-11-06T01:37:18;40.39;35.84;47.13;;
38366;Laerm;943;51.568;6.998;2022-11-06T01:39:48;39.14;34.90;46.82;;
38366;Laerm;943;51.568;6.998;2022-11-06T01:42:20;38.30;34.96;42.76;;
38366;Laerm;943;51.568;6.998;2022-11-06T01:45:32;37.97;34.88;45.30;;
38366;Laerm;943;51.568;6.998;2022-11-06T01:48:02;39.49;35.94;45.15;;
38366;Laerm;943;51.568;6.998;2022-11-06T01:50:30;36.82;33.98;39.92;;
38366;Laerm;943;51.568;6.998;2022-11-06T01:52:59;39.48;35.68;46.89;;
38366;Laerm;943;51.568;6.998;2022-11-06T01:55:45;37.43;34.21;42.99;;
38366;Laerm;943;51.568;6.998;2022-11-06T01:58:19;37.21;34.60;43.05;;
38366;Laerm;943;51.568;6.998;2022-11-06T02:00:48;38.27;35.14;45.07;;
38366;Laerm;943;51.568;6.998;2022-11-06T02:03:18;39.51;34.57;48.98;;
38366;Laerm;943;51.568;6.998;2022-11-06T02:05:49;37.77;34.13;42.92;;
38366;Laerm;943;51.568;6.998;2022-11-06T02:08:21;38.61;34.69;49.46;;
38366;Laerm;943;51.568;6.998;2022-11-06T02:10:51;39.09;34.92;49.02;;
38366;Laerm;943;51.568;6.998;2022-11-06T02:14:05;38.50;33.87;43.76;;
38366;Laerm;943;51.568;6.998;2022-11-06T02:17:28;38.77;35.43;48.88;;
38366;Laerm;943;51.568;6.998;2022-11-06T02:33:32;40.40;35.54;60.11;;
38366;Laerm;943;51.568;6.998;2022-11-06T02:36:16;37.49;34.30;42.65;;
38366;Laerm;943;51.568;6.998;2022-11-06T02:39:00;38.35;33.86;45.66;;
38366;Laerm;943;51.568;6.998;2022-11-06T02:41:39;36.70;33.91;42.94;;
38366;Laerm;943;51.568;6.998;2022-11-06T02:44:17;37.98;34.28;47.02;;
38366;Laerm;943;51.568;6.998;2022-11-06T02:47:13;38.07;34.35;46.23;;
38366;Laerm;943;51.568;6.998;2022-11-06T02:49:55;38.05;35.24;47.90;;
38366;Laerm;943;51.568;6.998;2022-11-06T02:52:40;38.55;34.49;47.35;;
38366;Laerm;943;51.568;6.998;2022-11-06T02:55:22;40.11;35.46;55.94;;
38366;Laerm;943;51.568;6.998;2022-11-06T02:58:07;39.81;33.46;49.33;;
38366;Laerm;943;51.568;6.998;2022-11-06T03:00:47;37.65;33.96;44.41;;
38366;Laerm;943;51.568;6.998;2022-11-06T03:03:34;38.19;34.44;47.69;;
38366;Laerm;943;51.568;6.998;2022-11-06T03:09:13;39.00;34.54;53.03;;
38366;Laerm;943;51.568;6.998;2022-11-06T03:11:42;38.11;33.84;44.37;;
38366;Laerm;943;51.568;6.998;2022-11-06T03:14:58;38.23;34.61;47.32;;
38366;Laerm;943;51.568;6.998;2022-11-06T03:21:06;40.78;35.22;53.63;;
38366;Laerm;943;51.568;6.998;2022-11-06T03:24:20;39.24;35.85;45.58;;
38366;Laerm;943;51.568;6.998;2022-11-06T03:26:54;39.57;34.97;52.26;;
38366;Laerm;943;51.568;6.998;2022-11-06T03:29:48;38.21;34.52;52.71;;
38366;Laerm;943;51.568;6.998;2022-11-06T03:32:31;37.59;34.05;53.78;;
38366;Laerm;943;51.568;6.998;2022-11-06T03:35:27;38.06;34.54;50.79;;
38366;Laerm;943;51.568;6.998;2022-11-06T03:38:20;39.43;35.37;45.33;;
38366;Laerm;943;51.568;6.998;2022-11-06T03:41:04;39.39;34.89;53.49;;
38366;Laerm;943;51.568;6.998;2022-11-06T03:43:37;38.04;34.97;42.29;;
38366;Laerm;943;51.568;6.998;2022-11-06T03:46:18;40.85;35.69;49.36;;
38366;Laerm;943;51.568;6.998;2022-11-06T03:49:10;40.69;34.36;47.80;;
38366;Laerm;943;51.568;6.998;2022-11-06T03:52:16;41.23;34.89;50.32;;
38366;Laerm;943;51.568;6.998;2022-11-06T03:55:18;39.56;36.08;46.90;;
38366;Laerm;943;51.568;6.998;2022-11-06T03:58:06;40.33;34.89;47.66;;
38366;Laerm;943;51.568;6.998;2022-11-06T04:00:39;39.95;36.22;49.29;;
38366;Laerm;943;51.568;6.998;2022-11-06T04:04:02;41.24;36.53;59.10;;
38366;Laerm;943;51.568;6.998;2022-11-06T04:07:04;40.17;35.23;49.99;;
38366;Laerm;943;51.568;6.998;2022-11-06T04:09:40;40.49;36.07;49.73;;
38366;Laerm;943;51.568;6.998;2022-11-06T04:12:31;41.01;35.55;51.38;;
38366;Laerm;943;51.568;6.998;2022-11-06T04:15:21;39.33;34.71;48.88;;
38366;Laerm;943;51.568;6.998;2022-11-06T04:17:49;38.37;35.15;44.49;;
38366;Laerm;943;51.568;6.998;2022-11-06T04:20:23;39.80;36.15;44.42;;
38366;Laerm;943;51.568;6.998;2022-11-06T04:23:47;40.18;36.32;56.28;;
38366;Laerm;943;51.568;6.998;2022-11-06T04:30:15;42.97;37.63;54.87;;
38366;Laerm;943;51.568;6.998;2022-11-06T04:33:21;41.16;37.27;52.19;;
38366;Laerm;943;51.568;6.998;2022-11-06T04:36:44;41.32;36.16;53.71;;
38366;Laerm;943;51.568;6.998;2022-11-06T04:40:08;39.85;35.61;56.21;;
38366;Laerm;943;51.568;6.998;2022-11-06T04:45:42;38.16;35.46;43.37;;
38366;Laerm;943;51.568;6.998;2022-11-06T04:48:14;40.81;35.16;54.61;;
38366;Laerm;943;51.568;6.998;2022-11-06T04:50:58;39.36;35.34;54.81;;
38366;Laerm;943;51.568;6.998;2022-11-06T04:53:31;40.90;35.83;64.26;;
38366;Laerm;943;51.568;6.998;2022-11-06T04:56:12;40.73;36.08;62.09;;
38366;Laerm;943;51.568;6.998;2022-11-06T04:58:45;39.47;34.47;51.68;;
38366;Laerm;943;51.568;6.998;2022-11-06T05:01:12;40.79;35.80;54.47;;
38366;Laerm;943;51.568;6.998;2022-11-06T05:03:40;39.66;35.15;55.95;;
38366;Laerm;943;51.568;6.998;2022-11-06T05:06:08;40.37;35.64;59.22;;
38366;Laerm;943;51.568;6.998;2022-11-06T05:08:37;39.91;35.74;56.97;;
38366;Laerm;943;51.568;6.998;2022-11-06T05:11:05;42.09;36.65;62.24;;
38366;Laerm;943;51.568;6.998;2022-11-06T05:13:33;39.62;36.09;55.91;;
38366;Laerm;943;51.568;6.998;2022-11-06T05:16:01;40.62;36.78;54.75;;
38366;Laerm;943;51.568;6.998;2022-11-06T05:18:29;40.93;36.81;56.06;;
38366;Laerm;943;51.568;6.998;2022-11-06T05:21:02;39.80;35.58;52.57;;
38366;Laerm;943;51.568;6.998;2022-11-06T05:23:48;42.40;36.00;54.72;;
38366;Laerm;943;51.568;6.998;2022-11-06T05:26:16;42.36;35.99;59.68;;
38366;Laerm;943;51.568;6.998;2022-11-06T05:28:47;47.52;35.26;72.29;;
38366;Laerm;943;51.568;6.998;2022-11-06T05:31:14;43.40;36.16;63.88;;
38366;Laerm;943;51.568;6.998;2022-11-06T05:33:42;39.57;36.10;45.38;;
38366;Laerm;943;51.568;6.998;2022-11-06T05:36:09;40.18;36.58;46.85;;
38366;Laerm;943;51.568;6.998;2022-11-06T05:38:37;40.39;36.01;53.91;;
38366;Laerm;943;51.568;6.998;2022-11-06T05:41:05;42.07;35.65;61.11;;
38366;Laerm;943;51.568;6.998;2022-11-06T05:43:32;40.09;36.29;49.83;;
38366;Laerm;943;51.568;6.998;2022-11-06T05:46:00;40.07;36.35;44.17;;
38366;Laerm;943;51.568;6.998;2022-11-06T05:48:29;42.21;36.67;56.13;;
38366;Laerm;943;51.568;6.998;2022-11-06T05:51:14;42.31;36.35;57.18;;
38366;Laerm;943;51.568;6.998;2022-11-06T05:53:42;43.67;36.37;61.44;;
38366;Laerm;943;51.568;6.998;2022-11-06T05:56:09;42.80;36.85;62.33;;
38366;Laerm;943;51.568;6.998;2022-11-06T05:58:37;41.16;36.92;51.39;;
38366;Laerm;943;51.568;6.998;2022-11-06T06:01:05;41.46;35.73;60.62;;
38366;Laerm;943;51.568;6.998;2022-11-06T06:03:33;43.05;37.24;61.86;;
38366;Laerm;943;51.568;6.998;2022-11-06T06:06:04;41.32;36.76;47.61;;
38366;Laerm;943;51.568;6.998;2022-11-06T06:08:33;43.36;36.54;64.29;;
38366;Laerm;943;51.568;6.998;2022-11-06T06:11:06;46.02;36.94;66.77;;
38366;Laerm;943;51.568;6.998;2022-11-06T06:13:37;43.39;36.33;63.48;;
38366;Laerm;943;51.568;6.998;2022-11-06T06:16:05;40.13;35.30;53.54;;
38366;Laerm;943;51.568;6.998;2022-11-06T06:18:33;40.51;36.11;58.44;;
38366;Laerm;943;51.568;6.998;2022-11-06T06:21:01;39.89;36.13;47.01;;
38366;Laerm;943;51.568;6.998;2022-11-06T06:23:29;41.41;35.68;58.81;;
38366;Laerm;943;51.568;6.998;2022-11-06T06:25:57;39.40;35.75;46.28;;
38366;Laerm;943;51.568;6.998;2022-11-06T06:28:28;43.03;36.25;64.59;;
38366;Laerm;943;51.568;6.998;2022-11-06T06:30:55;41.01;35.90;59.85;;
38366;Laerm;943;51.568;6.998;2022-11-06T06:33:28;42.65;36.92;63.73;;
38366;Laerm;943;51.568;6.998;2022-11-06T06:35:55;40.96;36.06;49.06;;
38366;Laerm;943;51.568;6.998;2022-11-06T06:38:23;46.78;36.77;73.05;;
38366;Laerm;943;51.568;6.998;2022-11-06T06:40:52;41.14;36.22;54.12;;
38366;Laerm;943;51.568;6.998;2022-11-06T06:43:20;45.71;36.01;69.58;;
38366;Laerm;943;51.568;6.998;2022-11-06T06:45:48;55.37;35.48;83.40;;
38366;Laerm;943;51.568;6.998;2022-11-06T06:48:16;42.53;36.70;63.07;;
38366;Laerm;943;51.568;6.998;2022-11-06T06:50:43;41.91;36.86;62.27;;
38366;Laerm;943;51.568;6.998;2022-11-06T06:53:11;40.19;36.34;48.29;;
38366;Laerm;943;51.568;6.998;2022-11-06T06:55:40;43.66;36.54;72.66;;
38366;Laerm;943;51.568;6.998;2022-11-06T06:58:08;39.88;35.73;51.98;;
38366;Laerm;943;51.568;6.998;2022-11-06T07:00:45;41.35;36.56;61.38;;
38366;Laerm;943;51.568;6.998;2022-11-06T07:03:13;39.63;36.66;47.21;;
38366;Laerm;943;51.568;6.998;2022-11-06T07:05:41;41.03;36.87;49.94;;
38366;Laerm;943;51.568;6.998;2022-11-06T07:08:09;41.81;37.06;53.47;;
38366;Laerm;943;51.568;6.998;2022-11-06T07:10:37;42.08;37.69;55.34;;
38366;Laerm;943;51.568;6.998;2022-11-06T07:13:06;42.28;38.10;54.92;;
38366;Laerm;943;51.568;6.998;2022-11-06T07:15:34;41.75;37.19;53.74;;
38366;Laerm;943;51.568;6.998;2022-11-06T07:18:06;44.42;38.13;72.47;;
38366;Laerm;943;51.568;6.998;2022-11-06T07:20:35;41.01;37.37;59.03;;
38366;Laerm;943;51.568;6.998;2022-11-06T07:23:07;45.59;37.31;68.75;;
38366;Laerm;943;51.568;6.998;2022-11-06T07:25:35;41.71;37.44;55.87;;
38366;Laerm;943;51.568;6.998;2022-11-06T07:28:07;43.30;37.63;63.80;;
38366;Laerm;943;51.568;6.998;2022-11-06T07:30:36;42.59;38.19;60.78;;
38366;Laerm;943;51.568;6.998;2022-11-06T07:33:05;43.72;37.39;72.16;;
38366;Laerm;943;51.568;6.998;2022-11-06T07:35:33;40.36;37.02;48.70;;
38366;Laerm;943;51.568;6.998;2022-11-06T07:38:06;42.34;37.77;51.42;;
38366;Laerm;943;51.568;6.998;2022-11-06T07:40:35;42.58;38.30;60.18;;
38366;Laerm;943;51.568;6.998;2022-11-06T07:43:11;41.99;37.77;61.10;;
38366;Laerm;943;51.568;6.998;2022-11-06T07:45:40;42.37;38.69;61.76;;
38366;Laerm;943;51.568;6.998;2022-11-06T07:48:08;41.62;37.81;55.32;;
38366;Laerm;943;51.568;6.998;2022-11-06T07:50:36;43.41;38.46;53.67;;
38366;Laerm;943;51.568;6.998;2022-11-06T07:53:04;41.74;38.29;52.21;;
38366;Laerm;943;51.568;6.998;2022-11-06T07:55:31;43.82;39.06;68.32;;
38366;Laerm;943;51.568;6.998;2022-11-06T07:58:05;44.04;39.31;66.87;;
38366;Laerm;943;51.568;6.998;2022-11-06T08:00:34;42.65;38.04;54.73;;
38366;Laerm;943;51.568;6.998;2022-11-06T08:03:02;45.30;38.85;67.47;;
38366;Laerm;943;51.568;6.998;2022-11-06T08:05:30;48.67;38.75;75.82;;
38366;Laerm;943;51.568;6.998;2022-11-06T08:07:57;46.33;38.65;61.81;;
38366;Laerm;943;51.568;6.998;2022-11-06T08:10:25;45.51;39.00;59.94;;
38366;Laerm;943;51.568;6.998;2022-11-06T08:12:53;43.37;38.15;66.66;;
38366;Laerm;943;51.568;6.998;2022-11-06T08:15:20;41.78;37.99;47.88;;
38366;Laerm;943;51.568;6.998;2022-11-06T08:17:48;44.04;39.56;49.53;;
38366;Laerm;943;51.568;6.998;2022-11-06T08:20:16;44.45;39.03;53.43;;
38366;Laerm;943;51.568;6.998;2022-11-06T08:22:44;41.79;38.74;46.52;;
38366;Laerm;943;51.568;6.998;2022-11-06T08:25:12;42.94;40.05;50.51;;
38366;Laerm;943;51.568;6.998;2022-11-06T08:27:39;46.74;39.35;60.79;;
38366;Laerm;943;51.568;6.998;2022-11-06T08:30:11;43.26;39.33;58.46;;
38366;Laerm;943;51.568;6.998;2022-11-06T08:32:38;43.57;40.04;52.14;;
38366;Laerm;943;51.568;6.998;2022-11-06T08:35:08;44.35;39.44;58.97;;
38366;Laerm;943;51.568;6.998;2022-11-06T08:37:36;43.30;39.48;53.87;;
38366;Laerm;943;51.568;6.998;2022-11-06T08:40:06;43.18;39.25;57.83;;
38366;Laerm;943;51.568;6.998;2022-11-06T08:42:34;42.65;39.51;51.03;;
38366;Laerm;943;51.568;6.998;2022-11-06T08:45:04;44.81;39.70;58.14;;
38366;Laerm;943;51.568;6.998;2022-11-06T08:47:32;43.93;39.18;52.38;;
38366;Laerm;943;51.568;6.998;2022-11-06T08:50:00;43.04;39.65;48.94;;
38366;Laerm;943;51.568;6.998;2022-11-06T08:52:28;47.59;38.68;64.36;;
38366;Laerm;943;51.568;6.998;2022-11-06T08:55:00;49.53;39.26;65.19;;
38366;Laerm;943;51.568;6.998;2022-11-06T08:57:28;46.07;40.66;69.74;;
38366;Laerm;943;51.568;6.998;2022-11-06T08:59:56;46.08;39.93;65.41;;
38366;Laerm;943;51.568;6.998;2022-11-06T09:02:23;46.29;40.47;62.28;;
38366;Laerm;943;51.568;6.998;2022-11-06T09:04:51;44.78;40.29;59.83;;
38366;Laerm;943;51.568;6.998;2022-11-06T09:07:19;46.41;39.99;62.12;;
38366;Laerm;943;51.568;6.998;2022-11-06T09:09:47;44.89;40.70;62.62;;
38366;Laerm;943;51.568;6.998;2022-11-06T09:12:15;43.67;38.93;52.45;;
38366;Laerm;943;51.568;6.998;2022-11-06T09:14:42;43.26;38.55;59.84;;
38366;Laerm;943;51.568;6.998;2022-11-06T09:17:11;47.81;40.31;58.54;;
38366;Laerm;943;51.568;6.998;2022-11-06T09:19:38;45.44;39.31;60.88;;
38366;Laerm;943;51.568;6.998;2022-11-06T09:22:07;50.68;39.73;64.67;;
38366;Laerm;943;51.568;6.998;2022-11-06T09:24:35;44.78;41.20;52.41;;
38366;Laerm;943;51.568;6.998;2022-11-06T09:27:23;44.29;40.17;58.07;;
38366;Laerm;943;51.568;6.998;2022-11-06T09:29:50;43.71;38.67;57.40;;
38366;Laerm;943;51.568;6.998;2022-11-06T09:32:18;42.20;38.82;48.64;;
38366;Laerm;943;51.568;6.998;2022-11-06T09:34:46;43.13;39.85;50.96;;
38366;Laerm;943;51.568;6.998;2022-11-06T09:37:14;45.94;40.34;55.80;;
38366;Laerm;943;51.568;6.998;2022-11-06T09:39:41;43.33;39.67;59.79;;
38366;Laerm;943;51.568;6.998;2022-11-06T09:45:31;43.63;39.41;54.56;;
38366;Laerm;943;51.568;6.998;2022-11-06T09:50:51;45.13;40.49;58.06;;
38366;Laerm;943;51.568;6.998;2022-11-06T09:53:47;45.43;40.21;64.45;;
38366;Laerm;943;51.568;6.998;2022-11-06T09:56:23;42.75;39.11;54.68;;
38366;Laerm;943;51.568;6.998;2022-11-06T09:58:53;42.48;38.10;59.53;;
38366;Laerm;943;51.568;6.998;2022-11-06T10:01:39;46.82;40.00;68.92;;
38366;Laerm;943;51.568;6.998;2022-11-06T10:04:45;43.82;39.18;61.22;;
38366;Laerm;943;51.568;6.998;2022-11-06T10:07:41;43.11;39.93;50.79;;
38366;Laerm;943;51.568;6.998;2022-11-06T10:10:21;43.28;39.00;52.70;;
38366;Laerm;943;51.568;6.998;2022-11-06T10:19:55;45.20;40.01;58.19;;
38366;Laerm;943;51.568;6.998;2022-11-06T10:22:41;44.03;39.34;54.55;;
38366;Laerm;943;51.568;6.998;2022-11-06T10:32:54;43.24;38.91;60.71;;
38366;Laerm;943;51.568;6.998;2022-11-06T10:38:43;45.00;38.75;61.98;;
38366;Laerm;943;51.568;6.998;2022-11-06T10:41:30;43.51;38.60;62.98;;
38366;Laerm;943;51.568;6.998;2022-11-06T10:44:35;44.25;39.55;60.35;;
38366;Laerm;943;51.568;6.998;2022-11-06T10:50:15;44.91;38.29;62.61;;
38366;Laerm;943;51.568;6.998;2022-11-06T10:58:32;42.94;38.89;53.74;;
38366;Laerm;943;51.568;6.998;2022-11-06T11:01:04;43.03;39.44;60.59;;
38366;Laerm;943;51.568;6.998;2022-11-06T11:03:45;43.25;40.05;52.72;;
38366;Laerm;943;51.568;6.998;2022-11-06T11:06:13;43.14;38.97;50.35;;
38366;Laerm;943;51.568;6.998;2022-11-06T11:08:50;43.23;38.57;56.95;;
38366;Laerm;943;51.568;6.998;2022-11-06T11:11:26;42.34;38.72;59.10;;
38366;Laerm;943;51.568;6.998;2022-11-06T11:16:37;45.46;41.03;59.47;;
38366;Laerm;943;51.568;6.998;2022-11-06T11:19:40;45.68;40.60;58.57;;
38366;Laerm;943;51.568;6.998;2022-11-06T11:22:21;44.73;40.15;62.44;;
38366;Laerm;943;51.568;6.998;2022-11-06T11:25:07;45.09;41.06;62.36;;
38366;Laerm;943;51.568;6.998;2022-11-06T11:27:50;45.11;41.37;60.28;;
38366;Laerm;943;51.568;6.998;2022-11-06T11:30:25;42.91;39.07;56.18;;
38366;Laerm;943;51.568;6.998;2022-11-06T11:32:55;46.30;39.08;61.33;;
38366;Laerm;943;51.568;6.998;2022-11-06T11:35:30;44.27;38.88;55.24;;
38366;Laerm;943;51.568;6.998;2022-11-06T11:38:16;44.79;40.18;61.86;;
38366;Laerm;943;51.568;6.998;2022-11-06T11:40:45;45.10;40.62;60.96;;
38366;Laerm;943;51.568;6.998;2022-11-06T11:43:30;46.44;40.44;57.18;;
38366;Laerm;943;51.568;6.998;2022-11-06T11:47:00;45.65;38.91;62.26;;
38366;Laerm;943;51.568;6.998;2022-11-06T11:49:37;45.79;39.91;61.31;;
38366;Laerm;943;51.568;6.998;2022-11-06T11:52:21;47.24;40.72;61.30;;
38366;Laerm;943;51.568;6.998;2022-11-06T11:54:56;48.52;41.37;66.49;;
38366;Laerm;943;51.568;6.998;2022-11-06T11:57:43;49.45;40.29;69.14;;
38366;Laerm;943;51.568;6.998;2022-11-06T12:00:22;48.05;41.20;66.47;;
38366;Laerm;943;51.568;6.998;2022-11-06T12:03:04;45.19;41.06;53.60;;
38366;Laerm;943;51.568;6.998;2022-11-06T12:05:39;45.59;41.30;61.00;;
38366;Laerm;943;51.568;6.998;2022-11-06T12:08:28;45.51;39.73;60.83;;
38366;Laerm;943;51.568;6.998;2022-11-06T12:11:04;45.04;40.07;59.70;;
38366;Laerm;943;51.568;6.998;2022-11-06T12:13:33;48.60;40.25;78.28;;
38366;Laerm;943;51.568;6.998;2022-11-06T12:16:17;47.23;41.25;65.24;;
38366;Laerm;943;51.568;6.998;2022-11-06T12:18:51;46.34;40.79;59.79;;
38366;Laerm;943;51.568;6.998;2022-11-06T12:21:53;52.28;40.74;69.13;;
38366;Laerm;943;51.568;6.998;2022-11-06T12:27:46;47.59;40.41;64.73;;
38366;Laerm;943;51.568;6.998;2022-11-06T12:30:18;46.22;39.43;62.76;;
38366;Laerm;943;51.568;6.998;2022-11-06T12:36:01;50.92;40.72;70.09;;
38366;Laerm;943;51.568;6.998;2022-11-06T12:39:03;45.42;39.81;63.32;;
38366;Laerm;943;51.568;6.998;2022-11-06T12:41:42;46.03;38.86;69.83;;
38366;Laerm;943;51.568;6.998;2022-11-06T12:44:15;45.52;39.85;55.37;;
38366;Laerm;943;51.568;6.998;2022-11-06T12:50:40;44.65;40.27;59.16;;
38366;Laerm;943;51.568;6.998;2022-11-06T12:56:33;45.73;39.48;67.29;;
38366;Laerm;943;51.568;6.998;2022-11-06T13:03:14;47.02;39.43;61.38;;
38366;Laerm;943;51.568;6.998;2022-11-06T13:06:37;45.68;40.23;60.89;;
38366;Laerm;943;51.568;6.998;2022-11-06T13:18:39;46.75;40.17;67.73;;
38366;Laerm;943;51.568;6.998;2022-11-06T13:25:18;49.93;40.40;64.86;;
38366;Laerm;943;51.568;6.998;2022-11-06T13:28:37;44.29;40.35;58.13;;
38366;Laerm;943;51.568;6.998;2022-11-06T13:31:13;45.35;40.64;61.14;;
38366;Laerm;943;51.568;6.998;2022-11-06T13:33:53;45.02;40.64;59.31;;
38366;Laerm;943;51.568;6.998;2022-11-06T13:36:26;46.13;40.59;64.10;;
38366;Laerm;943;51.568;6.998;2022-11-06T13:39:14;46.41;39.33;61.77;;
38366;Laerm;943;51.568;6.998;2022-11-06T13:41:44;46.82;41.04;60.01;;
38366;Laerm;943;51.568;6.998;2022-11-06T13:44:13;45.97;40.68;59.43;;
38366;Laerm;943;51.568;6.998;2022-11-06T13:47:05;47.16;40.34;62.78;;
38366;Laerm;943;51.568;6.998;2022-11-06T13:50:23;46.17;41.25;60.03;;
38366;Laerm;943;51.568;6.998;2022-11-06T13:56:46;46.17;40.83;66.11;;
38366;Laerm;943;51.568;6.998;2022-11-06T14:06:04;44.83;39.55;60.11;;
38366;Laerm;943;51.568;6.998;2022-11-06T14:09:19;46.82;41.96;60.37;;
38366;Laerm;943;51.568;6.998;2022-11-06T14:11:59;48.10;41.84;65.09;;
38366;Laerm;943;51.568;6.998;2022-11-06T14:14:32;46.79;41.25;59.87;;
38366;Laerm;943;51.568;6.998;2022-11-06T14:22:37;46.42;40.63;63.34;;
38366;Laerm;943;51.568;6.998;2022-11-06T14:36:30;46.02;40.79;67.27;;
38366;Laerm;943;51.568;6.998;2022-11-06T14:39:00;45.01;41.09;59.36;;
38366;Laerm;943;51.568;6.998;2022-11-06T14:44:31;46.22;40.57;57.06;;
38366;Laerm;943;51.568;6.998;2022-11-06T14:47:07;45.07;40.56;55.00;;
38366;Laerm;943;51.568;6.998;2022-11-06T14:49:53;43.31;39.26;50.79;;
38366;Laerm;943;51.568;6.998;2022-11-06T14:52:24;44.83;41.00;55.60;;
38366;Laerm;943;51.568;6.998;2022-11-06T14:55:05;43.79;39.75;49.94;;
38366;Laerm;943;51.568;6.998;2022-11-06T14:57:51;44.63;40.57;53.93;;
38366;Laerm;943;51.568;6.998;2022-11-06T15:01:01;47.01;40.23;62.74;;
38366;Laerm;943;51.568;6.998;2022-11-06T15:03:47;48.63;39.12;62.13;;
38366;Laerm;943;51.568;6.998;2022-11-06T15:17:29;44.54;40.40;59.24;;
38366;Laerm;943;51.568;6.998;2022-11-06T15:19:47;46.03;41.05;67.73;;
38366;Laerm;943;51.568;6.998;2022-11-06T15:22:48;47.99;40.22;66.89;;
38366;Laerm;943;51.568;6.998;2022-11-06T15:25:23;45.75;41.09;61.77;;
38366;Laerm;943;51.568;6.998;2022-11-06T15:28:21;48.24;40.37;65.10;;
38366;Laerm;943;51.568;6.998;2022-11-06T15:31:10;45.58;41.28;66.86;;
38366;Laerm;943;51.568;6.998;2022-11-06T15:34:11;44.46;40.32;57.74;;
38366;Laerm;943;51.568;6.998;2022-11-06T15:36:53;45.36;40.43;70.76;;
38366;Laerm;943;51.568;6.998;2022-11-06T15:39:48;44.06;40.35;57.69;;
38366;Laerm;943;51.568;6.998;2022-11-06T15:42:27;45.89;41.65;63.94;;
38366;Laerm;943;51.568;6.998;2022-11-06T15:45:24;45.19;41.25;51.87;;
38366;Laerm;943;51.568;6.998;2022-11-06T15:48:01;46.71;42.37;62.13;;
38366;Laerm;943;51.568;6.998;2022-11-06T15:50:41;47.24;43.37;57.71;;
38366;Laerm;943;51.568;6.998;2022-11-06T15:53:27;45.37;42.60;57.43;;
38366;Laerm;943;51.568;6.998;2022-11-06T15:56:05;48.10;44.14;67.17;;
38366;Laerm;943;51.568;6.998;2022-11-06T15:58:37;48.28;45.37;64.36;;
38366;Laerm;943;51.568;6.998;2022-11-06T16:01:09;49.08;45.49;60.46;;
38366;Laerm;943;51.568;6.998;2022-11-06T16:03:52;49.61;45.90;63.94;;
38366;Laerm;943;51.568;6.998;2022-11-06T16:06:21;53.07;44.15;82.53;;
38366;Laerm;943;51.568;6.998;2022-11-06T16:08:50;55.44;42.80;79.25;;
38366;Laerm;943;51.568;6.998;2022-11-06T16:11:21;47.67;44.44;67.59;;
38366;Laerm;943;51.568;6.998;2022-11-06T16:13:50;48.39;44.41;63.81;;
38366;Laerm;943;51.568;6.998;2022-11-06T16:16:40;50.72;45.49;70.71;;
38366;Laerm;943;51.568;6.998;2022-11-06T16:19:46;47.52;43.74;61.45;;
38366;Laerm;943;51.568;6.998;2022-11-06T16:22:27;50.20;43.88;72.64;;
38366;Laerm;943;51.568;6.998;2022-11-06T16:25:05;48.02;42.89;70.00;;
38366;Laerm;943;51.568;6.998;2022-11-06T16:27:38;46.58;42.81;58.89;;
38366;Laerm;943;51.568;6.998;2022-11-06T16:30:21;49.32;42.66;66.31;;
38366;Laerm;943;51.568;6.998;2022-11-06T16:32:53;46.19;42.30;59.55;;
38366;Laerm;943;51.568;6.998;2022-11-06T16:35:35;45.09;41.63;50.17;;
38366;Laerm;943;51.568;6.998;2022-11-06T16:41:06;44.83;40.99;57.91;;
38366;Laerm;943;51.568;6.998;2022-11-06T16:43:34;44.25;40.98;59.24;;
38366;Laerm;943;51.568;6.998;2022-11-06T16:46:06;44.16;40.50;49.85;;
38366;Laerm;943;51.568;6.998;2022-11-06T16:48:40;44.21;40.84;52.41;;
38366;Laerm;943;51.568;6.998;2022-11-06T16:51:30;44.02;40.90;50.89;;
38366;Laerm;943;51.568;6.998;2022-11-06T16:54:01;55.73;40.35;77.93;;
38366;Laerm;943;51.568;6.998;2022-11-06T16:56:34;43.89;40.24;50.73;;
38366;Laerm;943;51.568;6.998;2022-11-06T16:59:14;45.79;41.09;56.77;;
38366;Laerm;943;51.568;6.998;2022-11-06T17:01:45;54.86;52.81;57.54;;
38366;Laerm;943;51.568;6.998;2022-11-06T17:04:26;54.71;52.36;56.86;;
38366;Laerm;943;51.568;6.998;2022-11-06T17:06:57;54.71;52.31;61.66;;
38366;Laerm;943;51.568;6.998;2022-11-06T17:09:34;54.57;52.34;60.59;;
38366;Laerm;943;51.568;6.998;2022-11-06T17:12:09;52.86;41.82;58.70;;
38366;Laerm;943;51.568;6.998;2022-11-06T17:14:43;45.23;40.67;59.76;;
38366;Laerm;943;51.568;6.998;2022-11-06T17:17:25;44.30;41.04;55.17;;
38366;Laerm;943;51.568;6.998;2022-11-06T17:19:52;43.96;41.23;47.49;;
38366;Laerm;943;51.568;6.998;2022-11-06T17:22:25;46.95;40.83;55.33;;